createdAt,value
2018-05-14T00:01:35.140Z,3.90
2018-05-14T00:04:03.020Z,3.97
2018-05-14T00:06:30.280Z,3.50
2018-05-14T00:08:58.811Z,3.87
2018-05-14T00:11:26.013Z,3.50
2018-05-14T00:13:53.420Z,3.87
2018-05-14T00:16:20.921Z,3.43
2018-05-14T00:18:49.310Z,3.70
2018-05-14T00:21:18.043Z,3.40
2018-05-14T00:23:45.579Z,3.80
2018-05-14T00:26:15.841Z,3.67
2018-05-14T00:28:45.311Z,3.63
2018-05-14T00:31:12.710Z,3.90
2018-05-14T00:33:40.104Z,4.20
2018-05-14T00:36:08.172Z,4.00
2018-05-14T00:38:35.551Z,3.77
2018-05-14T00:41:03.081Z,3.10
2018-05-14T00:43:30.651Z,3.80
2018-05-14T00:45:59.791Z,3.90
2018-05-14T00:48:27.045Z,3.67
2018-05-14T00:50:54.460Z,3.80
2018-05-14T00:53:21.981Z,3.70
2018-05-14T00:55:52.411Z,3.87
2018-05-14T00:58:19.659Z,4.20
2018-05-14T01:00:47.813Z,4.00
2018-05-14T01:03:15.258Z,3.70
2018-05-14T01:05:43.580Z,3.80
2018-05-14T01:08:11.370Z,3.97
2018-05-14T01:10:39.720Z,4.50
2018-05-14T01:13:08.341Z,4.03
2018-05-14T01:15:37.171Z,4.27
2018-05-14T01:18:05.590Z,4.50
2018-05-14T01:20:37.320Z,4.37
2018-05-14T01:23:04.550Z,4.40
2018-05-14T01:25:32.270Z,4.20
2018-05-14T01:28:00.282Z,4.70
2018-05-14T01:30:28.640Z,4.20
2018-05-14T01:32:56.141Z,4.57
2018-05-14T01:35:23.480Z,4.43
2018-05-14T01:37:51.835Z,4.63
2018-05-14T01:40:20.880Z,5.33
2018-05-14T01:42:48.549Z,5.07
2018-05-14T01:45:17.569Z,5.30
2018-05-14T01:47:45.301Z,5.80
2018-05-14T01:50:12.840Z,5.20
2018-05-14T01:52:40.521Z,5.10
2018-05-14T01:55:07.925Z,5.10
2018-05-14T01:57:35.181Z,5.50
2018-05-14T02:00:02.938Z,5.37
2018-05-14T02:02:30.271Z,5.23
2018-05-14T02:04:57.879Z,5.63
2018-05-14T02:07:26.069Z,6.33
2018-05-14T02:09:53.429Z,5.80
2018-05-14T02:12:20.720Z,5.80
2018-05-14T02:14:48.239Z,5.70
2018-05-14T02:17:16.010Z,5.60
2018-05-14T02:19:43.749Z,5.67
2018-05-14T02:22:11.270Z,5.90
2018-05-14T02:24:38.689Z,5.73
2018-05-14T02:27:06.150Z,5.57
2018-05-14T02:29:34.560Z,5.67
2018-05-14T02:32:02.060Z,5.67
2018-05-14T02:34:29.541Z,5.90
2018-05-14T02:36:56.979Z,6.03
2018-05-14T02:39:24.649Z,5.90
2018-05-14T02:41:52.283Z,5.90
2018-05-14T02:44:19.851Z,5.80
2018-05-14T02:46:47.799Z,5.37
2018-05-14T02:49:15.291Z,6.17
2018-05-14T02:51:42.750Z,5.80
2018-05-14T02:54:10.292Z,5.93
2018-05-14T02:56:38.189Z,5.77
2018-05-14T02:59:05.760Z,5.87
2018-05-14T03:01:33.941Z,6.03
2018-05-14T03:04:01.230Z,5.63
2018-05-14T03:06:28.841Z,6.00
2018-05-14T03:08:57.601Z,6.37
2018-05-14T03:11:25.380Z,6.20
2018-05-14T03:13:52.851Z,5.47
2018-05-14T03:16:20.069Z,6.70
2018-05-14T03:18:50.159Z,6.33
2018-05-14T03:21:17.662Z,6.17
2018-05-14T03:23:45.211Z,6.90
2018-05-14T03:26:14.160Z,5.83
2018-05-14T03:28:41.451Z,5.50
2018-05-14T03:31:08.971Z,5.87
2018-05-14T03:33:36.330Z,5.90
2018-05-14T03:36:04.952Z,6.20
2018-05-14T03:38:33.063Z,6.40
2018-05-14T03:41:01.390Z,5.97
2018-05-14T03:43:30.309Z,6.30
2018-05-14T03:45:57.761Z,5.83
2018-05-14T03:48:25.621Z,5.70
2018-05-14T03:50:52.885Z,5.83
2018-05-14T03:53:20.859Z,5.70
2018-05-14T03:55:48.973Z,6.53
2018-05-14T03:58:34.221Z,5.87
2018-05-14T04:01:15.841Z,6.10
2018-05-14T04:04:01.562Z,5.47
2018-05-14T04:06:34.810Z,5.93
2018-05-14T04:09:02.311Z,5.70
2018-05-14T04:11:30.760Z,6.13
2018-05-14T04:13:58.010Z,6.00
2018-05-14T04:16:25.444Z,5.53
2018-05-14T04:18:53.871Z,5.53
2018-05-14T04:21:21.191Z,5.90
2018-05-14T04:23:48.720Z,5.77
2018-05-14T04:26:16.125Z,5.90
2018-05-14T04:28:44.750Z,5.53
2018-05-14T04:31:13.171Z,6.47
2018-05-14T04:33:40.831Z,6.40
2018-05-14T04:36:09.330Z,6.10
2018-05-14T04:38:36.870Z,6.10
2018-05-14T04:41:04.231Z,5.63
2018-05-14T04:43:31.644Z,6.47
2018-05-14T04:45:59.001Z,6.20
2018-05-14T04:48:27.110Z,6.27
2018-05-14T04:50:57.121Z,6.20
2018-05-14T04:53:24.581Z,5.57
2018-05-14T04:55:51.960Z,7.13
2018-05-14T04:58:20.381Z,6.17
2018-05-14T05:00:47.911Z,5.87
2018-05-14T05:03:15.445Z,6.27
2018-05-14T05:05:42.752Z,6.83
2018-05-14T05:08:10.380Z,6.80
2018-05-14T05:10:39.481Z,6.13
2018-05-14T05:13:08.562Z,5.73
2018-05-14T05:15:36.351Z,5.87
2018-05-14T05:18:04.581Z,6.20
2018-05-14T05:20:31.840Z,6.73
2018-05-14T05:22:59.480Z,6.17
2018-05-14T05:25:27.891Z,6.20
2018-05-14T05:27:56.240Z,6.03
2018-05-14T05:30:25.291Z,6.40
2018-05-14T05:32:53.351Z,6.70
2018-05-14T05:35:22.322Z,6.20
2018-05-14T05:37:51.084Z,5.97
2018-05-14T05:40:20.370Z,6.33
2018-05-14T05:42:47.752Z,6.20
2018-05-14T05:45:16.994Z,6.27
2018-05-14T05:47:44.602Z,6.00
2018-05-14T05:50:12.011Z,7.17
2018-05-14T05:52:39.761Z,6.57
2018-05-14T05:55:07.672Z,6.00
2018-05-14T05:57:35.293Z,5.90
2018-05-14T06:00:02.781Z,6.43
2018-05-14T06:02:31.291Z,6.33
2018-05-14T06:04:58.740Z,6.07
2018-05-14T06:07:27.340Z,6.60
2018-05-14T06:09:55.520Z,5.90
2018-05-14T06:12:22.880Z,6.20
2018-05-14T06:14:51.211Z,6.00
2018-05-14T06:17:18.482Z,5.83
2018-05-14T06:19:46.061Z,6.00
2018-05-14T06:22:13.420Z,6.23
2018-05-14T06:24:40.771Z,5.67
2018-05-14T06:27:08.580Z,5.67
2018-05-14T06:29:35.914Z,6.17
2018-05-14T06:32:05.691Z,5.50
2018-05-14T06:34:33.012Z,6.37
2018-05-14T06:37:00.631Z,5.77
2018-05-14T06:39:28.111Z,5.47
2018-05-14T06:41:55.682Z,6.37
2018-05-14T06:44:26.002Z,5.17
2018-05-14T06:46:53.322Z,5.37
2018-05-14T06:49:20.840Z,5.40
2018-05-14T06:51:48.381Z,5.10
2018-05-14T06:54:15.732Z,5.40
2018-05-14T06:56:43.381Z,5.00
2018-05-14T06:59:11.370Z,5.07
2018-05-14T07:01:38.760Z,5.07
2018-05-14T07:04:07.662Z,4.27
2018-05-14T07:06:35.111Z,5.23
2018-05-14T07:09:05.363Z,5.00
2018-05-14T07:11:32.667Z,4.63
2018-05-14T07:14:00.011Z,4.87
2018-05-14T07:16:27.540Z,4.60
2018-05-14T07:18:55.850Z,4.93
2018-05-14T07:21:23.291Z,4.47
2018-05-14T07:23:51.372Z,4.60
2018-05-14T07:26:18.910Z,4.97
2018-05-14T07:28:46.312Z,4.20
2018-05-14T07:31:13.662Z,4.50
2018-05-14T07:33:40.991Z,4.77
2018-05-14T07:36:08.401Z,4.53
2018-05-14T07:38:36.001Z,4.77
2018-05-14T07:41:03.681Z,4.90
2018-05-14T07:43:31.031Z,4.60
2018-05-14T07:45:58.365Z,4.93
2018-05-14T07:48:25.907Z,4.77
2018-05-14T07:50:53.481Z,4.47
2018-05-14T07:53:21.072Z,4.67
2018-05-14T07:55:48.301Z,4.90
2018-05-14T07:58:15.690Z,4.93
2018-05-14T08:00:43.230Z,4.63
2018-05-14T08:03:10.635Z,4.43
2018-05-14T08:05:37.983Z,4.50
2018-05-14T08:08:05.350Z,4.50
2018-05-14T08:10:33.401Z,4.90
2018-05-14T08:13:00.830Z,4.50
2018-05-14T08:15:28.261Z,4.30
2018-05-14T08:17:57.260Z,5.10
2018-05-14T08:20:24.842Z,4.43
2018-05-14T08:22:52.702Z,4.80
2018-05-14T08:25:20.121Z,4.77
2018-05-14T08:27:47.542Z,4.60
2018-05-14T08:30:15.070Z,4.80
2018-05-14T08:32:45.430Z,4.63
2018-05-14T08:35:12.925Z,4.60
2018-05-14T08:37:42.662Z,4.80
2018-05-14T08:40:10.031Z,4.80
2018-05-14T08:42:37.535Z,4.53
2018-05-14T08:45:04.913Z,4.80
2018-05-14T08:47:33.201Z,4.37
2018-05-14T08:50:02.441Z,4.20
2018-05-14T08:52:32.971Z,4.20
2018-05-14T08:55:00.332Z,4.23
2018-05-14T08:57:28.152Z,4.30
2018-05-14T08:59:55.452Z,4.30
2018-05-14T09:02:23.950Z,4.73
2018-05-14T09:04:53.174Z,4.50
2018-05-14T09:07:20.450Z,4.40
2018-05-14T09:09:49.340Z,4.30
2018-05-14T09:12:16.861Z,4.87
2018-05-14T09:14:44.322Z,4.50
2018-05-14T09:17:11.621Z,4.23
2018-05-14T09:19:39.319Z,4.10
2018-05-14T09:22:07.432Z,4.50
2018-05-14T09:24:34.730Z,4.00
2018-05-14T09:27:05.143Z,4.50
2018-05-14T09:29:32.431Z,4.40
2018-05-14T09:32:01.541Z,4.30
2018-05-14T09:34:30.551Z,4.50
2018-05-14T09:36:59.161Z,4.37
2018-05-14T09:39:27.890Z,4.33
2018-05-14T09:41:55.320Z,4.50
2018-05-14T09:44:23.952Z,4.03
2018-05-14T09:46:51.300Z,4.03
2018-05-14T09:49:20.720Z,4.23
2018-05-14T09:51:48.080Z,4.13
2018-05-14T09:54:15.411Z,4.30
2018-05-14T09:56:44.741Z,4.10
2018-05-14T09:59:12.112Z,3.97
2018-05-14T10:01:39.890Z,4.20
2018-05-14T10:04:07.140Z,4.20
2018-05-14T10:06:36.191Z,3.97
2018-05-14T10:09:05.021Z,3.90
2018-05-14T10:11:32.931Z,3.43
2018-05-14T10:14:03.511Z,3.70
2018-05-14T10:16:31.060Z,3.27
2018-05-14T10:18:59.990Z,3.70
2018-05-14T10:21:27.351Z,3.60
2018-05-14T10:23:54.840Z,3.70
2018-05-14T10:26:22.730Z,4.13
2018-05-14T10:28:50.060Z,3.33
2018-05-14T10:31:17.649Z,2.97
2018-05-14T10:33:45.145Z,3.20
2018-05-14T10:36:12.471Z,3.10
2018-05-14T10:38:39.770Z,3.33
2018-05-14T10:41:07.972Z,3.13
2018-05-14T10:43:35.412Z,3.47
2018-05-14T10:46:04.354Z,3.70
2018-05-14T10:48:31.671Z,3.20
2018-05-14T10:51:00.530Z,3.33
2018-05-14T10:53:28.041Z,3.13
2018-05-14T10:55:57.252Z,3.10
2018-05-14T10:58:25.453Z,3.30
2018-05-14T11:00:53.242Z,2.80
2018-05-14T11:03:21.412Z,4.43
2018-05-14T11:05:49.252Z,3.73
2018-05-14T11:08:18.430Z,3.50
2018-05-14T11:10:46.821Z,3.73
2018-05-14T11:13:14.100Z,3.50
2018-05-14T11:15:41.659Z,3.50
2018-05-14T11:18:09.970Z,3.50
2018-05-14T11:20:37.352Z,3.43
2018-05-14T11:23:05.490Z,3.30
2018-05-14T11:25:32.772Z,3.53
2018-05-14T11:28:01.814Z,3.43
2018-05-14T11:30:29.170Z,3.43
2018-05-14T11:32:57.240Z,3.90
2018-05-14T11:35:24.844Z,4.27
2018-05-14T11:37:54.180Z,3.47
2018-05-14T11:40:24.400Z,2.93
2018-05-14T11:42:51.740Z,3.00
2018-05-14T11:45:19.092Z,3.40
2018-05-14T11:47:47.620Z,3.13
2018-05-14T11:50:16.981Z,3.10
2018-05-14T11:52:44.359Z,2.93
2018-05-14T11:55:14.182Z,3.07
2018-05-14T11:57:42.410Z,3.10
2018-05-14T12:00:10.342Z,2.90
2018-05-14T12:02:37.760Z,2.60
2018-05-14T12:05:05.147Z,2.73
2018-05-14T12:07:32.490Z,2.67
2018-05-14T12:10:02.761Z,3.00
2018-05-14T12:12:30.014Z,2.80
2018-05-14T12:14:57.419Z,3.23
2018-05-14T12:17:24.833Z,2.70
2018-05-14T12:19:54.140Z,2.80
2018-05-14T12:22:21.570Z,2.43
2018-05-14T12:24:49.911Z,2.80
2018-05-14T12:27:17.321Z,2.50
2018-05-14T12:29:44.610Z,2.70
2018-05-14T12:32:12.135Z,2.73
2018-05-14T12:34:39.431Z,2.63
2018-05-14T12:37:06.920Z,2.90
2018-05-14T12:39:34.231Z,2.20
2018-05-14T12:42:03.553Z,3.10
2018-05-14T12:44:32.690Z,2.47
2018-05-14T12:47:01.751Z,2.80
2018-05-14T12:49:31.080Z,2.43
2018-05-14T12:52:01.564Z,2.40
2018-05-14T12:54:28.999Z,2.47
2018-05-14T12:56:56.431Z,2.30
2018-05-14T12:59:25.531Z,2.67
2018-05-14T13:01:52.952Z,2.30
2018-05-14T13:04:20.200Z,2.30
2018-05-14T13:06:48.781Z,2.50
2018-05-14T13:09:17.104Z,2.30
2018-05-14T13:11:44.730Z,2.60
2018-05-14T13:14:12.731Z,2.47
2018-05-14T13:16:39.887Z,2.47
2018-05-14T13:19:07.585Z,2.43
2018-05-14T13:21:35.304Z,6.27
2018-05-14T13:24:02.822Z,5.70
2018-05-14T13:26:30.247Z,2.30
2018-05-14T13:28:57.607Z,2.10
2018-05-14T13:31:24.933Z,2.23
2018-05-14T13:33:52.531Z,2.13
2018-05-14T13:36:19.953Z,2.03
2018-05-14T13:38:47.233Z,3.50
2018-05-14T13:41:14.866Z,2.13
2018-05-14T13:43:42.955Z,2.50
2018-05-14T13:46:10.654Z,2.23
2018-05-14T13:48:38.708Z,2.30
2018-05-14T13:51:06.266Z,2.33
2018-05-14T13:53:35.401Z,2.23
2018-05-14T13:56:06.857Z,2.47
2018-05-14T13:58:36.922Z,2.43
2018-05-14T14:01:07.372Z,2.20
2018-05-14T14:03:35.311Z,2.20
2018-05-14T14:06:03.971Z,2.60
2018-05-14T14:08:32.722Z,2.30
2018-05-14T14:11:00.132Z,2.17
2018-05-14T14:13:27.570Z,2.07
2018-05-14T14:15:57.047Z,2.10
2018-05-14T14:18:24.361Z,1.90
2018-05-14T14:20:52.260Z,2.23
2018-05-14T14:23:19.893Z,1.90
2018-05-14T14:25:47.641Z,1.80
2018-05-14T14:28:17.422Z,2.13
2018-05-14T14:30:44.942Z,1.70
2018-05-14T14:33:12.740Z,2.00
2018-05-14T14:35:40.140Z,2.20
2018-05-14T14:38:07.383Z,2.13
2018-05-14T14:40:35.591Z,1.97
2018-05-14T14:43:03.360Z,1.90
2018-05-14T14:45:30.840Z,1.87
2018-05-14T14:47:58.332Z,1.97
2018-05-14T14:50:26.577Z,1.97
2018-05-14T14:52:54.870Z,2.10
2018-05-14T14:55:23.220Z,2.10
2018-05-14T14:57:50.770Z,2.17
2018-05-14T15:00:18.143Z,2.13
2018-05-14T15:02:46.274Z,2.23
2018-05-14T15:05:14.131Z,2.20
2018-05-14T15:07:41.632Z,2.30
2018-05-14T15:10:10.228Z,2.13
2018-05-14T15:12:38.152Z,2.00
2018-05-14T15:15:05.626Z,2.00
2018-05-14T15:17:33.750Z,2.03
2018-05-14T15:20:00.951Z,2.17
2018-05-14T15:22:28.452Z,2.00
2018-05-14T15:24:56.692Z,1.90
2018-05-14T15:29:53.360Z,1.90
2018-05-14T15:32:20.801Z,2.30
2018-05-14T15:34:48.350Z,2.30
2018-05-14T15:37:16.272Z,2.23
2018-05-14T15:39:43.730Z,2.63
2018-05-14T15:42:12.030Z,2.17
2018-05-14T15:44:39.555Z,2.30
2018-05-14T15:47:08.421Z,2.47
2018-05-14T15:49:35.942Z,2.23
2018-05-14T15:52:03.620Z,2.30
2018-05-14T15:54:32.110Z,2.53
2018-05-14T15:56:59.591Z,2.47
2018-05-14T15:59:27.090Z,18.10
2018-05-14T16:01:55.930Z,2.80
2018-05-14T16:04:23.562Z,2.37
2018-05-14T16:06:51.152Z,4.47
2018-05-14T16:09:18.943Z,2.33
2018-05-14T16:11:46.600Z,2.00
2018-05-14T16:14:14.871Z,2.33
2018-05-14T16:16:42.373Z,5.07
2018-05-14T16:19:10.650Z,2.13
2018-05-14T16:21:38.159Z,1.93
2018-05-14T16:24:06.401Z,2.03
2018-05-14T16:26:34.058Z,2.73
2018-05-14T16:29:01.349Z,9.77
2018-05-14T16:31:28.901Z,2.57
2018-05-14T16:33:57.631Z,2.43
2018-05-14T16:36:26.211Z,2.47
2018-05-14T16:38:54.240Z,2.30
2018-05-14T16:41:21.921Z,3.17
2018-05-14T16:43:50.229Z,2.60
2018-05-14T16:46:18.469Z,2.33
2018-05-14T16:48:45.966Z,2.37
2018-05-14T16:51:13.057Z,2.40
2018-05-14T16:53:41.182Z,2.50
2018-05-14T16:56:08.641Z,2.50
2018-05-14T16:58:36.160Z,2.77
2018-05-14T17:01:03.577Z,2.57
2018-05-14T17:03:30.970Z,2.43
2018-05-14T17:05:58.541Z,2.50
2018-05-14T17:08:26.081Z,2.27
2018-05-14T17:10:54.191Z,2.43
2018-05-14T17:13:21.541Z,2.37
2018-05-14T17:15:49.037Z,2.60
2018-05-14T17:18:16.553Z,2.37
2018-05-14T17:20:44.023Z,2.57
2018-05-14T17:23:11.652Z,2.80
2018-05-14T17:25:39.831Z,2.80
2018-05-14T17:28:07.633Z,2.60
2018-05-14T17:30:35.601Z,2.83
2018-05-14T17:33:02.981Z,2.70
2018-05-14T17:35:30.542Z,2.80
2018-05-14T17:37:58.351Z,2.70
2018-05-14T17:40:25.634Z,4.30
2018-05-14T17:42:53.180Z,5.60
2018-05-14T17:45:21.172Z,2.50
2018-05-14T17:47:48.752Z,2.80
2018-05-14T17:50:16.594Z,2.63
2018-05-14T17:52:44.021Z,3.63
2018-05-14T17:55:11.766Z,3.40
2018-05-14T17:57:39.210Z,2.90
2018-05-14T18:00:07.500Z,2.93
2018-05-14T18:02:35.220Z,3.00
2018-05-14T18:05:02.953Z,3.07
2018-05-14T18:07:30.089Z,2.70
2018-05-14T18:09:57.491Z,3.83
2018-05-14T18:12:25.192Z,2.73
2018-05-14T18:14:52.682Z,3.30
2018-05-14T18:17:20.119Z,2.60
2018-05-14T18:19:53.562Z,2.77
2018-05-14T18:22:25.714Z,2.53
2018-05-14T18:28:01.691Z,2.70
2018-05-14T18:30:29.321Z,2.87
2018-05-14T18:33:02.972Z,2.80
2018-05-14T18:38:24.271Z,3.00
2018-05-14T18:40:52.041Z,2.70
2018-05-14T18:43:20.161Z,3.00
2018-05-14T18:45:48.042Z,2.87
2018-05-14T18:48:15.761Z,2.80
2018-05-14T18:50:43.577Z,3.10
2018-05-14T18:53:11.150Z,2.93
2018-05-14T18:55:38.942Z,2.97
2018-05-14T18:58:06.390Z,2.67
2018-05-14T19:00:35.731Z,3.30
2018-05-14T19:03:03.520Z,2.63
2018-05-14T19:05:31.210Z,3.10
2018-05-14T19:07:58.862Z,2.80
2018-05-14T19:13:31.311Z,2.87
2018-05-14T19:16:06.713Z,2.60
2018-05-14T19:18:34.142Z,2.90
2018-05-14T19:21:01.681Z,2.83
2018-05-14T19:23:35.161Z,2.63
2018-05-14T19:26:02.691Z,2.83
2018-05-14T19:28:36.081Z,2.70
2018-05-14T19:31:04.791Z,2.60
2018-05-14T19:33:38.620Z,2.70
2018-05-14T19:36:07.282Z,2.70
2018-05-14T19:38:34.621Z,2.60
2018-05-14T19:41:02.101Z,2.33
2018-05-14T19:43:29.560Z,2.60
2018-05-14T19:45:57.831Z,2.90
2018-05-14T19:48:26.721Z,2.90
2018-05-14T19:50:54.990Z,2.40
2018-05-14T19:53:26.771Z,3.07
2018-05-14T19:55:54.860Z,2.33
2018-05-14T19:58:22.966Z,2.93
2018-05-14T20:00:50.472Z,2.70
2018-05-14T20:03:22.248Z,3.23
2018-05-14T20:05:50.470Z,2.70
2018-05-14T20:08:18.071Z,2.73
2018-05-14T20:10:45.371Z,3.00
2018-05-14T20:13:12.720Z,2.80
2018-05-14T20:15:41.912Z,2.50
2018-05-14T20:18:10.262Z,2.37
2018-05-14T20:20:37.592Z,2.80
2018-05-14T20:23:05.340Z,3.20
2018-05-14T20:25:34.160Z,3.00
2018-05-14T20:28:02.022Z,2.80
2018-05-14T20:30:29.490Z,2.83
2018-05-14T20:32:57.290Z,3.00
2018-05-14T20:35:24.600Z,2.70
2018-05-14T20:37:53.830Z,2.90
2018-05-14T20:40:21.440Z,2.80
2018-05-14T20:42:48.790Z,3.30
2018-05-14T20:45:17.367Z,2.83
2018-05-14T20:47:44.690Z,2.97
2018-05-14T20:50:12.150Z,2.70
2018-05-14T20:52:40.152Z,2.73
2018-05-14T20:55:07.750Z,2.80
2018-05-14T20:57:36.070Z,2.60
2018-05-14T21:00:06.312Z,2.83
2018-05-14T21:02:34.771Z,3.23
2018-05-14T21:05:02.321Z,2.80
2018-05-14T21:07:29.911Z,2.70
2018-05-14T21:09:59.571Z,3.07
2018-05-14T21:12:27.153Z,3.27
2018-05-14T21:14:56.772Z,2.70
2018-05-14T21:17:24.331Z,3.07
2018-05-14T21:19:51.681Z,2.90
2018-05-14T21:22:19.060Z,3.13
2018-05-14T21:24:46.721Z,3.10
2018-05-14T21:27:14.481Z,3.30
2018-05-14T21:29:41.940Z,3.00
2018-05-14T21:32:09.461Z,3.60
2018-05-14T21:34:39.359Z,3.30
2018-05-14T21:37:07.720Z,3.20
2018-05-14T21:39:35.590Z,3.07
2018-05-14T21:42:04.210Z,3.20
2018-05-14T21:44:31.581Z,3.10
2018-05-14T21:47:00.731Z,3.30
2018-05-14T21:49:31.400Z,3.07
2018-05-14T21:52:01.000Z,3.33
2018-05-14T21:54:28.415Z,3.10
2018-05-14T21:56:55.745Z,3.47
2018-05-14T21:59:23.061Z,3.30
2018-05-14T22:01:50.551Z,3.40
2018-05-14T22:04:19.442Z,3.57
2018-05-14T22:07:02.794Z,3.70
2018-05-14T22:09:30.070Z,3.20
2018-05-14T22:11:57.869Z,3.17
2018-05-14T22:14:25.447Z,3.53
2018-05-14T22:16:54.440Z,3.10
2018-05-14T22:19:24.700Z,3.30
2018-05-14T22:21:54.171Z,3.50
2018-05-14T22:24:22.591Z,3.03
2018-05-14T22:26:52.841Z,3.00
2018-05-14T22:29:20.694Z,3.50
2018-05-14T22:31:48.000Z,3.73
2018-05-14T22:34:15.589Z,3.53
2018-05-14T22:36:46.175Z,3.40
2018-05-14T22:39:15.460Z,3.27
2018-05-14T22:41:42.861Z,3.60
2018-05-14T22:44:11.750Z,3.70
2018-05-14T22:46:39.091Z,3.73
2018-05-14T22:49:08.261Z,3.40
2018-05-14T22:51:36.511Z,3.60
2018-05-14T22:54:04.200Z,3.40
2018-05-14T22:56:32.991Z,3.40
2018-05-14T22:59:00.484Z,3.30
2018-05-14T23:01:28.010Z,3.30
2018-05-14T23:03:56.311Z,2.97
2018-05-14T23:06:23.575Z,2.97
2018-05-14T23:08:51.189Z,3.40
2018-05-14T23:11:18.570Z,3.17
2018-05-14T23:13:46.831Z,3.03
2018-05-14T23:16:14.160Z,3.10
2018-05-14T23:18:41.861Z,3.13
2018-05-14T23:21:10.921Z,3.10
2018-05-14T23:23:38.921Z,3.10
2018-05-14T23:26:07.410Z,3.00
2018-05-14T23:28:36.120Z,3.40
2018-05-14T23:31:03.781Z,3.43
2018-05-14T23:33:31.030Z,2.80
2018-05-14T23:35:58.732Z,3.10
2018-05-14T23:38:27.820Z,3.40
2018-05-14T23:40:55.240Z,3.20
2018-05-14T23:43:24.230Z,3.50
2018-05-14T23:45:51.589Z,2.97
2018-05-14T23:48:18.941Z,3.30
2018-05-14T23:50:46.211Z,3.20
2018-05-14T23:53:13.591Z,2.93
2018-05-14T23:55:40.960Z,3.40
2018-05-14T23:58:09.352Z,3.23
